Time;durP1;ratioP1;P1;durP2;ratioP2;P2;SDS_P1;SDS_P2;PMS_P1;PMS_P2;Temp;Humidity;BMP_temperature;BMP_pressure;BME280_temperature;BME280_humidity;BME280_pressure;Samples;Min_cycle;Max_cycle;Signal;HPM_P1;HPM_P2
2022/01/29 00:03:00;;;;;;;18.80;10.60;;;;;;;;;;8210359;28;20482;-62
2022/01/29 00:07:00;;;;;;;19.52;10.10;;;;;;;;;;8212187;28;20398;-61
2022/01/29 00:11:08;;;;;;;16.83;9.48;;;;;;;;;;8208961;28;21057;-61
2022/01/29 00:15:08;;;;;;;16.23;8.88;;;;;;;;;;8213564;28;20460;-62
2022/01/29 00:19:09;;;;;;;14.52;8.40;;;;;;;;;;8216183;28;20026;-61
2022/01/29 00:23:09;;;;;;;16.48;8.50;;;;;;;;;;8216618;28;20031;-61
2022/01/29 00:27:10;;;;;;;11.30;7.22;;;;;;;;;;8216142;28;20046;-61
2022/01/29 00:31:10;;;;;;;11.00;6.60;;;;;;;;;;8214200;28;20097;-61
2022/01/29 00:35:11;;;;;;;12.07;6.47;;;;;;;;;;8219797;28;20030;-61
2022/01/29 00:39:11;;;;;;;14.75;7.28;;;;;;;;;;8217979;28;20164;-61
2022/01/29 00:43:11;;;;;;;12.35;6.57;;;;;;;;;;8220865;28;20061;-61
2022/01/29 00:47:12;;;;;;;11.07;6.28;;;;;;;;;;8221258;28;20064;-62
2022/01/29 00:51:12;;;;;;;11.30;6.40;;;;;;;;;;8222300;28;20169;-62
2022/01/29 00:55:13;;;;;;;14.85;7.30;;;;;;;;;;8220798;28;20141;-61
2022/01/29 00:59:13;;;;;;;13.02;7.20;;;;;;;;;;8219964;28;20675;-61
2022/01/29 01:03:13;;;;;;;12.97;6.47;;;;;;;;;;8219572;28;20042;-61
2022/01/29 01:07:14;;;;;;;20.38;7.65;;;;;;;;;;8221491;28;20289;-62
2022/01/29 01:11:15;;;;;;;15.52;7.55;;;;;;;;;;8219699;28;20046;-61
2022/01/29 01:15:15;;;;;;;11.63;7.60;;;;;;;;;;8219805;28;20046;-62
2022/01/29 01:19:15;;;;;;;14.18;8.95;;;;;;;;;;8220710;28;20320;-61
2022/01/29 01:23:15;;;;;;;12.33;7.77;;;;;;;;;;8221687;28;20132;-62
2022/01/29 01:27:16;;;;;;;14.23;7.50;;;;;;;;;;8218999;28;20297;-61
2022/01/29 01:31:16;;;;;;;12.52;7.70;;;;;;;;;;8218222;28;20042;-62
2022/01/29 01:35:30;;;;;;;14.25;7.40;;;;;;;;;;8218657;28;20069;-61
2022/01/29 01:39:34;;;;;;;15.77;8.75;;;;;;;;;;8220979;28;20076;-61
2022/01/29 01:43:34;;;;;;;21.63;9.15;;;;;;;;;;8220850;28;20141;-61
2022/01/29 01:47:35;;;;;;;17.02;9.05;;;;;;;;;;8220580;28;20061;-61
2022/01/29 01:51:35;;;;;;;18.17;9.30;;;;;;;;;;8220029;28;20026;-61
2022/01/29 01:55:36;;;;;;;13.73;8.32;;;;;;;;;;8219803;28;20030;-61
2022/01/29 01:59:36;;;;;;;17.70;9.00;;;;;;;;;;8219300;28;20022;-61
2022/01/29 02:03:36;;;;;;;22.30;11.50;;;;;;;;;;8221055;28;20045;-61
2022/01/29 02:07:36;;;;;;;16.13;9.02;;;;;;;;;;8219886;28;20040;-61
2022/01/29 02:11:39;;;;;;;15.05;8.82;;;;;;;;;;8219669;28;20085;-62
2022/01/29 02:15:40;;;;;;;17.40;9.23;;;;;;;;;;8219625;28;20042;-61
2022/01/29 02:19:40;;;;;;;16.33;9.60;;;;;;;;;;8218384;28;20639;-61
2022/01/29 02:23:40;;;;;;;15.07;8.95;;;;;;;;;;8220014;28;20516;-61
2022/01/29 02:27:40;;;;;;;16.38;9.55;;;;;;;;;;8218661;28;20910;-61
2022/01/29 02:31:44;;;;;;;19.33;9.35;;;;;;;;;;8217628;28;20648;-62
2022/01/29 02:35:46;;;;;;;17.27;9.43;;;;;;;;;;8220289;28;20035;-62
2022/01/29 02:39:46;;;;;;;17.48;9.38;;;;;;;;;;8219697;28;20037;-61
2022/01/29 02:43:47;;;;;;;20.35;9.95;;;;;;;;;;8217720;28;20030;-62
2022/01/29 02:47:47;;;;;;;19.42;9.90;;;;;;;;;;8219473;28;20046;-61
2022/01/29 02:51:57;;;;;;;21.35;10.65;;;;;;;;;;8217690;28;20681;-61
2022/01/29 02:55:57;;;;;;;17.92;9.93;;;;;;;;;;8218653;28;20120;-61
2022/01/29 03:00:00;;;;;;;18.30;10.02;;;;;;;;;;8218680;28;20030;-62
2022/01/29 03:04:00;;;;;;;20.30;10.48;;;;;;;;;;8219309;28;20145;-62
2022/01/29 03:12:40;;;;;;;18.83;9.23;;;;;;;;;;8212245;28;20053;-61
2022/01/29 03:16:40;;;;;;;15.32;8.82;;;;;;;;;;8218102;28;20065;-63
2022/01/29 03:20:40;;;;;;;19.02;9.60;;;;;;;;;;8217611;28;20030;-61
2022/01/29 03:24:40;;;;;;;19.33;9.80;;;;;;;;;;8218266;28;20623;-61
2022/01/29 03:28:41;;;;;;;18.70;9.05;;;;;;;;;;8219029;28;20029;-61
2022/01/29 03:32:41;;;;;;;17.42;8.57;;;;;;;;;;8219066;28;20037;-61
2022/01/29 03:36:41;;;;;;;15.68;9.30;;;;;;;;;;8216703;28;20105;-61
2022/01/29 03:40:43;;;;;;;17.48;9.30;;;;;;;;;;8218281;28;20029;-61
2022/01/29 03:44:44;;;;;;;15.63;8.88;;;;;;;;;;8218301;28;20022;-61
2022/01/29 03:48:44;;;;;;;16.80;9.02;;;;;;;;;;8219955;28;20042;-61
2022/01/29 03:52:44;;;;;;;18.42;9.70;;;;;;;;;;8223451;28;20129;-62
2022/01/29 03:56:45;;;;;;;16.10;8.13;;;;;;;;;;8224639;28;20057;-61
2022/01/29 04:00:45;;;;;;;16.70;8.63;;;;;;;;;;8222580;28;20042;-62
2022/01/29 04:04:45;;;;;;;16.20;8.60;;;;;;;;;;8224206;28;20034;-61
2022/01/29 04:08:45;;;;;;;23.23;10.75;;;;;;;;;;8222565;28;20030;-61
2022/01/29 04:12:49;;;;;;;16.13;8.40;;;;;;;;;;8223769;28;20113;-62
2022/01/29 04:16:49;;;;;;;16.67;8.18;;;;;;;;;;8224740;28;20534;-62
2022/01/29 04:20:49;;;;;;;19.02;8.77;;;;;;;;;;8221276;28;20030;-61
2022/01/29 04:24:50;;;;;;;15.20;7.90;;;;;;;;;;8224116;28;20026;-61
2022/01/29 04:28:51;;;;;;;15.75;8.38;;;;;;;;;;8221920;28;20282;-61
2022/01/29 04:36:52;;;;;;;18.07;9.33;;;;;;;;;;8223115;28;20026;-62
2022/01/29 04:40:53;;;;;;;13.18;7.53;;;;;;;;;;8222426;28;20260;-61
2022/01/29 04:44:53;;;;;;;12.35;7.38;;;;;;;;;;8223032;28;20120;-62
2022/01/29 04:48:53;;;;;;;10.15;6.85;;;;;;;;;;8222479;28;20042;-61
2022/01/29 04:52:53;;;;;;;11.75;7.25;;;;;;;;;;8220765;28;20061;-62
2022/01/29 04:56:53;;;;;;;12.50;7.35;;;;;;;;;;8222744;28;20062;-62
2022/01/29 05:00:54;;;;;;;10.82;6.50;;;;;;;;;;8223078;28;20274;-62
2022/01/29 05:04:54;;;;;;;13.10;7.78;;;;;;;;;;8221629;28;20073;-61
2022/01/29 05:08:54;;;;;;;13.70;7.60;;;;;;;;;;8220698;28;20064;-62
2022/01/29 05:13:00;;;;;;;12.13;7.10;;;;;;;;;;8219591;28;20173;-61
2022/01/29 05:29:56;;;;;;;13.75;8.60;;;;;;;;;;8220244;28;20029;-61
2022/01/29 05:33:57;;;;;;;12.77;7.57;;;;;;;;;;8221680;28;20042;-62
2022/01/29 05:37:57;;;;;;;12.77;7.68;;;;;;;;;;8219689;28;20026;-62
2022/01/29 05:41:58;;;;;;;14.20;8.88;;;;;;;;;;8219712;28;20574;-61
2022/01/29 05:45:59;;;;;;;13.20;8.52;;;;;;;;;;8219903;28;20042;-62
2022/01/29 05:49:59;;;;;;;13.00;8.40;;;;;;;;;;8217212;28;20054;-62
2022/01/29 05:54:00;;;;;;;11.93;8.25;;;;;;;;;;8221847;28;20137;-62
2022/01/29 05:58:00;;;;;;;14.05;8.40;;;;;;;;;;8221604;28;20033;-62
2022/01/29 06:02:00;;;;;;;14.13;8.63;;;;;;;;;;8218174;28;20038;-62
2022/01/29 06:06:00;;;;;;;12.73;8.10;;;;;;;;;;8220266;28;20030;-62
2022/01/29 06:10:00;;;;;;;12.05;8.57;;;;;;;;;;8217402;28;20034;-61
2022/01/29 06:14:01;;;;;;;13.75;8.05;;;;;;;;;;8219705;28;20038;-62
2022/01/29 06:18:02;;;;;;;12.48;7.85;;;;;;;;;;8220534;28;20081;-61
2022/01/29 06:22:07;;;;;;;12.00;7.20;;;;;;;;;;8219112;28;20025;-61
2022/01/29 06:26:09;;;;;;;12.10;7.85;;;;;;;;;;8220517;28;20036;-61
2022/01/29 06:30:10;;;;;;;11.18;7.43;;;;;;;;;;8218785;28;20080;-62
2022/01/29 06:34:10;;;;;;;11.00;6.75;;;;;;;;;;8233545;28;20038;-63
2022/01/29 06:38:11;;;;;;;11.88;7.82;;;;;;;;;;8219798;28;20055;-62
2022/01/29 06:42:11;;;;;;;12.85;8.43;;;;;;;;;;8216943;28;20165;-61
2022/01/29 06:46:11;;;;;;;12.30;8.10;;;;;;;;;;8219512;28;20065;-61
2022/01/29 06:50:12;;;;;;;10.05;6.68;;;;;;;;;;8218708;28;20117;-62
2022/01/29 06:54:12;;;;;;;8.93;6.50;;;;;;;;;;8218306;28;20034;-62
2022/01/29 06:58:12;;;;;;;11.05;7.13;;;;;;;;;;8219076;28;20585;-62
2022/01/29 07:02:12;;;;;;;8.52;5.88;;;;;;;;;;8217257;28;20092;-62
2022/01/29 07:06:12;;;;;;;9.27;6.63;;;;;;;;;;8217688;28;21004;-62
2022/01/29 07:10:13;;;;;;;7.77;5.40;;;;;;;;;;8218422;28;20487;-62
2022/01/29 07:14:17;;;;;;;9.23;5.87;;;;;;;;;;8217386;28;20392;-62
2022/01/29 07:18:17;;;;;;;8.85;5.43;;;;;;;;;;8217850;28;20866;-61
2022/01/29 07:22:18;;;;;;;9.65;6.15;;;;;;;;;;8219437;28;20080;-62
2022/01/29 07:26:18;;;;;;;8.02;5.20;;;;;;;;;;8222062;28;20030;-62
2022/01/29 07:30:18;;;;;;;7.38;5.15;;;;;;;;;;8224374;28;20030;-62
2022/01/29 07:34:18;;;;;;;6.73;4.43;;;;;;;;;;8225377;28;20871;-62
2022/01/29 07:38:19;;;;;;;6.70;4.50;;;;;;;;;;8224340;28;20273;-62
2022/01/29 07:42:20;;;;;;;6.55;4.25;;;;;;;;;;8221989;28;20490;-62
2022/01/29 07:46:20;;;;;;;5.40;3.75;;;;;;;;;;8225726;28;20076;-62
2022/01/29 07:50:20;;;;;;;7.95;4.15;;;;;;;;;;8222686;28;20097;-62
2022/01/29 07:54:20;;;;;;;5.05;3.65;;;;;;;;;;8226251;28;20760;-62
2022/01/29 07:58:21;;;;;;;4.32;3.47;;;;;;;;;;8217256;28;20034;-62
2022/01/29 08:02:21;;;;;;;5.00;3.75;;;;;;;;;;8219999;28;20039;-63
2022/01/29 08:06:22;;;;;;;6.38;3.72;;;;;;;;;;8216187;28;20044;-62
2022/01/29 08:10:22;;;;;;;6.75;3.92;;;;;;;;;;8215629;28;20470;-62
2022/01/29 08:14:22;;;;;;;5.63;3.63;;;;;;;;;;8215860;28;20033;-62
2022/01/29 08:18:22;;;;;;;6.22;3.85;;;;;;;;;;8215548;28;20068;-61
2022/01/29 08:22:23;;;;;;;5.00;3.40;;;;;;;;;;8211458;28;20076;-61
2022/01/29 08:26:23;;;;;;;3.08;2.63;;;;;;;;;;8217235;28;20030;-62
2022/01/29 08:30:23;;;;;;;3.75;3.08;;;;;;;;;;8217514;28;20522;-61
2022/01/29 08:34:24;;;;;;;5.63;3.40;;;;;;;;;;8214558;28;20146;-62
2022/01/29 08:38:24;;;;;;;4.88;3.00;;;;;;;;;;8217319;28;20472;-62
2022/01/29 08:42:25;;;;;;;3.67;3.22;;;;;;;;;;8214636;28;20724;-62
2022/01/29 08:46:25;;;;;;;4.57;2.95;;;;;;;;;;8216093;28;20398;-62
2022/01/29 08:50:25;;;;;;;4.00;3.25;;;;;;;;;;8214749;28;20466;-62
2022/01/29 08:54:25;;;;;;;3.58;2.97;;;;;;;;;;8215623;28;20023;-62
2022/01/29 08:58:25;;;;;;;2.80;2.40;;;;;;;;;;8213817;28;20269;-62
2022/01/29 09:02:26;;;;;;;3.23;2.93;;;;;;;;;;8213973;28;20030;-63
2022/01/29 09:06:26;;;;;;;2.85;2.50;;;;;;;;;;8214710;28;20845;-62
2022/01/29 09:10:27;;;;;;;2.50;2.30;;;;;;;;;;8215102;28;20030;-62
2022/01/29 09:14:28;;;;;;;3.35;2.47;;;;;;;;;;8215169;28;20141;-62
2022/01/29 09:18:28;;;;;;;3.17;2.47;;;;;;;;;;8214805;28;20510;-62
2022/01/29 09:22:28;;;;;;;3.42;2.50;;;;;;;;;;8215263;28;20121;-62
2022/01/29 09:26:29;;;;;;;2.67;2.25;;;;;;;;;;8214314;28;20547;-62
2022/01/29 09:30:29;;;;;;;3.58;2.60;;;;;;;;;;8215109;28;20507;-62
2022/01/29 09:34:29;;;;;;;2.65;2.45;;;;;;;;;;8214751;28;20030;-62
2022/01/29 09:38:30;;;;;;;3.25;2.55;;;;;;;;;;8214456;28;20157;-62
2022/01/29 09:42:31;;;;;;;2.90;2.33;;;;;;;;;;8214915;28;20310;-61
2022/01/29 09:46:32;;;;;;;2.25;2.05;;;;;;;;;;8214039;28;20312;-62
2022/01/29 09:50:34;;;;;;;2.88;2.22;;;;;;;;;;8213524;28;20026;-62
2022/01/29 09:54:35;;;;;;;2.42;1.95;;;;;;;;;;8214019;28;20077;-62
2022/01/29 09:58:36;;;;;;;2.95;2.20;;;;;;;;;;8214092;28;20022;-62
2022/01/29 10:02:36;;;;;;;2.42;2.15;;;;;;;;;;8212344;28;20030;-62
2022/01/29 10:06:46;;;;;;;2.97;2.40;;;;;;;;;;8341613;27;20421;-62
2022/01/29 10:10:48;;;;;;;2.50;2.25;;;;;;;;;;8350127;28;20043;-62
2022/01/29 10:14:49;;;;;;;2.67;2.30;;;;;;;;;;8342212;28;20430;-62
2022/01/29 10:19:09;;;;;;;2.70;2.45;;;;;;;;;;8288769;28;20060;-62
2022/01/29 10:23:09;;;;;;;3.25;2.60;;;;;;;;;;8285702;28;20061;-62
2022/01/29 10:27:09;;;;;;;3.00;2.53;;;;;;;;;;8292461;28;20033;-62
2022/01/29 10:31:10;;;;;;;3.80;2.92;;;;;;;;;;8299078;28;20044;-62
2022/01/29 10:35:10;;;;;;;3.38;2.63;;;;;;;;;;8322940;28;20033;-62
2022/01/29 10:39:11;;;;;;;2.40;2.20;;;;;;;;;;8319990;28;20280;-62
2022/01/29 10:43:12;;;;;;;2.60;2.35;;;;;;;;;;8317115;28;20037;-62
2022/01/29 10:47:12;;;;;;;3.13;2.83;;;;;;;;;;8317274;28;20029;-62
2022/01/29 10:51:12;;;;;;;3.80;3.00;;;;;;;;;;8313391;28;20629;-62
2022/01/29 10:55:12;;;;;;;3.15;2.42;;;;;;;;;;8317278;28;20426;-62
2022/01/29 10:59:13;;;;;;;2.60;2.38;;;;;;;;;;8316221;28;20459;-62
2022/01/29 11:03:13;;;;;;;3.08;2.60;;;;;;;;;;8318729;28;20041;-62
2022/01/29 11:07:19;;;;;;;2.60;2.30;;;;;;;;;;8313222;28;20122;-62
2022/01/29 11:11:19;;;;;;;2.75;2.40;;;;;;;;;;8317326;28;20029;-62
2022/01/29 11:15:22;;;;;;;2.67;2.30;;;;;;;;;;8309930;28;20498;-63
2022/01/29 11:19:22;;;;;;;2.35;2.10;;;;;;;;;;8293586;28;20033;-62
2022/01/29 11:23:23;;;;;;;3.25;2.53;;;;;;;;;;8297001;28;20425;-62
2022/01/29 11:27:24;;;;;;;2.65;2.33;;;;;;;;;;8292014;28;20489;-62
2022/01/29 11:31:28;;;;;;;2.60;2.33;;;;;;;;;;8293884;28;20032;-62
2022/01/29 11:35:29;;;;;;;2.50;2.30;;;;;;;;;;8292218;28;20033;-62
2022/01/29 11:39:29;;;;;;;3.05;2.58;;;;;;;;;;8292632;28;20029;-62
2022/01/29 11:43:30;;;;;;;3.20;2.37;;;;;;;;;;8293869;28;20025;-62
2022/01/29 11:47:36;;;;;;;2.55;2.35;;;;;;;;;;8294453;28;20841;-62
2022/01/29 11:51:39;;;;;;;2.80;2.28;;;;;;;;;;8289489;28;20028;-62
2022/01/29 11:55:40;;;;;;;2.13;2.03;;;;;;;;;;8293870;28;20029;-62
2022/01/29 11:59:41;;;;;;;2.65;2.45;;;;;;;;;;8293053;28;20433;-62
2022/01/29 12:03:44;;;;;;;2.30;2.10;;;;;;;;;;8292125;28;20032;-63
2022/01/29 12:08:03;;;;;;;2.40;2.10;;;;;;;;;;8293019;28;20021;-62
2022/01/29 12:12:27;;;;;;;2.75;2.40;;;;;;;;;;8290921;28;20021;-62
2022/01/29 12:16:47;;;;;;;2.55;2.35;;;;;;;;;;8293772;28;20190;-63
2022/01/29 12:20:47;;;;;;;2.88;2.22;;;;;;;;;;8291310;28;20067;-62
2022/01/29 12:24:48;;;;;;;2.50;2.30;;;;;;;;;;8292551;28;20033;-66
2022/01/29 12:28:50;;;;;;;2.60;2.40;;;;;;;;;;8291463;28;20021;-62
2022/01/29 12:32:54;;;;;;;2.63;2.38;;;;;;;;;;8291296;28;20061;-62
2022/01/29 12:37:08;;;;;;;2.20;1.98;;;;;;;;;;8291306;28;20020;-62
2022/01/29 12:41:12;;;;;;;2.35;2.10;;;;;;;;;;8291397;28;20524;-62
2022/01/29 12:45:13;;;;;;;2.80;2.58;;;;;;;;;;8292552;28;20033;-63
2022/01/29 12:49:13;;;;;;;2.70;2.40;;;;;;;;;;8291565;28;20036;-62
2022/01/29 12:53:15;;;;;;;2.00;1.90;;;;;;;;;;8292644;28;20161;-63
2022/01/29 12:57:15;;;;;;;2.38;2.05;;;;;;;;;;8291036;28;20033;-63
2022/01/29 13:01:17;;;;;;;3.30;2.38;;;;;;;;;;8289337;28;20041;-62
2022/01/29 13:05:19;;;;;;;1.88;1.77;;;;;;;;;;8291709;28;20025;-62
2022/01/29 13:09:20;;;;;;;2.60;1.95;;;;;;;;;;8289357;28;20957;-62
2022/01/29 13:13:28;;;;;;;2.03;1.83;;;;;;;;;;8284805;28;20282;-62
2022/01/29 13:17:28;;;;;;;2.65;1.85;;;;;;;;;;8289221;28;20043;-63
2022/01/29 13:21:30;;;;;;;2.10;1.90;;;;;;;;;;8289584;28;20057;-62
2022/01/29 13:25:31;;;;;;;2.00;1.80;;;;;;;;;;8291657;28;20021;-63
2022/01/29 13:29:34;;;;;;;1.88;1.77;;;;;;;;;;8286802;28;20032;-62
2022/01/29 13:33:35;;;;;;;1.60;1.50;;;;;;;;;;8289236;28;20552;-62
2022/01/29 13:37:35;;;;;;;1.50;1.40;;;;;;;;;;8289454;28;20394;-62
2022/01/29 13:41:35;;;;;;;3.28;2.00;;;;;;;;;;8288042;28;20475;-62
2022/01/29 13:45:48;;;;;;;1.90;1.70;;;;;;;;;;8289296;28;20037;-63
2022/01/29 13:49:51;;;;;;;2.00;1.77;;;;;;;;;;8285725;28;20268;-62
2022/01/29 13:53:54;;;;;;;3.85;3.05;;;;;;;;;;8289489;28;20051;-63
2022/01/29 13:57:58;;;;;;;5.93;2.80;;;;;;;;;;8287507;28;20017;-62
2022/01/29 14:02:03;;;;;;;5.25;3.40;;;;;;;;;;8285875;28;20775;-62
2022/01/29 14:06:40;;;;;;;3.47;2.17;;;;;;;;;;8289243;28;20053;-62
2022/01/29 14:10:41;;;;;;;4.13;2.40;;;;;;;;;;8281796;28;20084;-62
2022/01/29 14:14:53;;;;;;;2.60;2.40;;;;;;;;;;8288604;28;20030;-62
2022/01/29 14:18:53;;;;;;;3.60;2.50;;;;;;;;;;8289282;28;20037;-62
2022/01/29 14:22:53;;;;;;;1.70;1.60;;;;;;;;;;8287910;28;20509;-62
2022/01/29 14:26:54;;;;;;;2.30;2.10;;;;;;;;;;8290973;28;20482;-62
2022/01/29 14:30:54;;;;;;;1.63;1.50;;;;;;;;;;8290038;28;20452;-62
2022/01/29 14:34:55;;;;;;;3.90;2.20;;;;;;;;;;8290012;28;20140;-62
2022/01/29 14:38:55;;;;;;;2.97;1.90;;;;;;;;;;8290534;28;20138;-62
2022/01/29 14:42:55;;;;;;;4.22;2.75;;;;;;;;;;8289011;28;20013;-62
2022/01/29 14:46:56;;;;;;;2.15;1.90;;;;;;;;;;8287985;28;20510;-63
2022/01/29 14:50:56;;;;;;;1.65;1.55;;;;;;;;;;8289808;28;20137;-63
2022/01/29 14:54:56;;;;;;;1.40;1.30;;;;;;;;;;8297190;28;20439;-62
2022/01/29 14:58:57;;;;;;;1.20;1.10;;;;;;;;;;8294245;28;20034;-63
2022/01/29 15:02:57;;;;;;;1.40;1.20;;;;;;;;;;8295012;28;20270;-62
2022/01/29 15:06:57;;;;;;;1.30;1.20;;;;;;;;;;8294315;28;20445;-63
2022/01/29 15:10:58;;;;;;;1.55;1.45;;;;;;;;;;8292658;28;20032;-63
2022/01/29 15:14:58;;;;;;;1.57;1.47;;;;;;;;;;8292931;28;20040;-62
2022/01/29 15:18:59;;;;;;;1.63;1.43;;;;;;;;;;8293245;28;20627;-62
2022/01/29 15:23:02;;;;;;;1.63;1.50;;;;;;;;;;8293803;28;20982;-62
2022/01/29 15:27:02;;;;;;;1.35;1.25;;;;;;;;;;8294394;28;20024;-62
2022/01/29 15:31:04;;;;;;;1.40;1.30;;;;;;;;;;8292189;28;20064;-63
2022/01/29 15:35:05;;;;;;;1.50;1.40;;;;;;;;;;8295102;28;20044;-62
2022/01/29 15:39:05;;;;;;;1.35;1.25;;;;;;;;;;8292294;28;20017;-62
2022/01/29 15:43:05;;;;;;;1.60;1.50;;;;;;;;;;8293572;28;20511;-62
2022/01/29 15:47:06;;;;;;;1.20;1.20;;;;;;;;;;8293078;28;20464;-63
2022/01/29 15:51:06;;;;;;;1.45;1.35;;;;;;;;;;8289279;28;20025;-63
2022/01/29 15:55:07;;;;;;;1.20;1.10;;;;;;;;;;8292940;28;20094;-63
2022/01/29 15:59:07;;;;;;;1.50;1.40;;;;;;;;;;8293183;28;20786;-63
2022/01/29 16:03:08;;;;;;;1.53;1.43;;;;;;;;;;8290390;28;20052;-63
2022/01/29 16:07:08;;;;;;;1.60;1.50;;;;;;;;;;8290459;28;20310;-63
2022/01/29 16:11:08;;;;;;;1.50;1.40;;;;;;;;;;8291125;28;20513;-63
2022/01/29 16:15:08;;;;;;;1.50;1.40;;;;;;;;;;8292357;28;20692;-63
2022/01/29 16:19:09;;;;;;;1.57;1.47;;;;;;;;;;8293783;28;20527;-63
2022/01/29 16:23:09;;;;;;;1.65;1.50;;;;;;;;;;8291975;28;20834;-65
2022/01/29 16:27:09;;;;;;;1.43;1.30;;;;;;;;;;8292913;28;20540;-63
2022/01/29 16:31:10;;;;;;;2.67;2.30;;;;;;;;;;8292467;28;21140;-63
2022/01/29 16:35:10;;;;;;;1.98;1.80;;;;;;;;;;8290407;28;20033;-62
2022/01/29 16:39:11;;;;;;;3.70;2.85;;;;;;;;;;8291706;28;20028;-62
2022/01/29 16:43:11;;;;;;;1.80;1.70;;;;;;;;;;8291053;28;20893;-63
2022/01/29 16:47:11;;;;;;;1.85;1.67;;;;;;;;;;8292015;28;20135;-63
2022/01/29 16:51:11;;;;;;;1.90;1.80;;;;;;;;;;8289990;28;20036;-63
2022/01/29 16:55:12;;;;;;;1.70;1.60;;;;;;;;;;8292106;28;20083;-63
2022/01/29 16:59:13;;;;;;;2.20;1.47;;;;;;;;;;8289946;28;20040;-63
2022/01/29 17:03:13;;;;;;;1.98;1.70;;;;;;;;;;8290304;28;20272;-63
2022/01/29 17:07:16;;;;;;;2.38;2.17;;;;;;;;;;8289820;28;20134;-62
2022/01/29 17:11:16;;;;;;;2.30;2.10;;;;;;;;;;8290575;28;20013;-63
2022/01/29 17:15:16;;;;;;;2.55;1.95;;;;;;;;;;8287109;28;20388;-63
2022/01/29 17:19:17;;;;;;;1.50;1.40;;;;;;;;;;8287335;28;20318;-62
2022/01/29 17:23:17;;;;;;;1.92;1.83;;;;;;;;;;8291396;28;20029;-63
2022/01/29 17:27:17;;;;;;;1.50;1.40;;;;;;;;;;8291973;28;20304;-63
2022/01/29 17:31:19;;;;;;;2.13;1.92;;;;;;;;;;8289766;28;20105;-64
2022/01/29 17:35:20;;;;;;;1.95;1.85;;;;;;;;;;8288905;28;20038;-63
2022/01/29 17:39:21;;;;;;;1.80;1.52;;;;;;;;;;8290676;28;20108;-63
2022/01/29 17:43:22;;;;;;;2.13;1.95;;;;;;;;;;8289227;28;20033;-63
2022/01/29 17:47:23;;;;;;;1.77;1.67;;;;;;;;;;8288824;28;20520;-63
2022/01/29 17:51:24;;;;;;;1.80;1.70;;;;;;;;;;8289915;28;20024;-63
2022/01/29 17:55:25;;;;;;;1.80;1.70;;;;;;;;;;8289619;28;20366;-63
2022/01/29 17:59:25;;;;;;;1.60;1.50;;;;;;;;;;8286841;28;20727;-63
2022/01/29 18:03:25;;;;;;;1.70;1.60;;;;;;;;;;8287059;28;20443;-62
2022/01/29 18:07:26;;;;;;;1.45;1.35;;;;;;;;;;8289544;28;20259;-63
2022/01/29 18:11:26;;;;;;;1.83;1.50;;;;;;;;;;8288167;28;20028;-64
2022/01/29 18:15:27;;;;;;;2.05;1.75;;;;;;;;;;8287452;28;20263;-63
2022/01/29 18:19:28;;;;;;;2.30;2.10;;;;;;;;;;8286671;28;20295;-63
2022/01/29 18:23:28;;;;;;;2.00;1.80;;;;;;;;;;8288895;28;20755;-62
2022/01/29 18:27:29;;;;;;;1.98;1.80;;;;;;;;;;8292926;28;20337;-62
2022/01/29 18:31:30;;;;;;;1.67;1.58;;;;;;;;;;8294173;28;20698;-62
2022/01/29 18:35:30;;;;;;;1.80;1.50;;;;;;;;;;8292673;28;20382;-62
2022/01/29 18:39:30;;;;;;;1.90;1.80;;;;;;;;;;8295510;28;20573;-62
2022/01/29 18:43:37;;;;;;;1.77;1.67;;;;;;;;;;8294809;28;20595;-63
2022/01/29 18:47:37;;;;;;;1.70;1.60;;;;;;;;;;8295073;28;20037;-62
2022/01/29 18:51:38;;;;;;;1.70;1.60;;;;;;;;;;8290600;28;20054;-62
2022/01/29 18:55:38;;;;;;;1.60;1.50;;;;;;;;;;8293509;28;20551;-63
2022/01/29 18:59:38;;;;;;;1.70;1.60;;;;;;;;;;8293072;28;20574;-62
2022/01/29 19:03:38;;;;;;;1.55;1.45;;;;;;;;;;8294640;28;20490;-62
2022/01/29 19:07:42;;;;;;;1.60;1.50;;;;;;;;;;8292503;28;20026;-62
2022/01/29 19:11:43;;;;;;;1.95;1.83;;;;;;;;;;8293956;28;20025;-62
2022/01/29 19:15:50;;;;;;;1.73;1.63;;;;;;;;;;8293316;28;20372;-62
2022/01/29 19:19:50;;;;;;;1.50;1.40;;;;;;;;;;8292564;28;20024;-62
2022/01/29 19:23:50;;;;;;;1.50;1.40;;;;;;;;;;8296668;28;20364;-62
2022/01/29 19:27:51;;;;;;;1.67;1.58;;;;;;;;;;8293494;28;20079;-62
2022/01/29 19:31:51;;;;;;;1.60;1.50;;;;;;;;;;8293457;28;20030;-62
2022/01/29 19:35:53;;;;;;;1.50;1.40;;;;;;;;;;8294330;28;20037;-62
2022/01/29 19:39:53;;;;;;;1.52;1.42;;;;;;;;;;8293081;28;20524;-62
2022/01/29 19:43:53;;;;;;;1.50;1.40;;;;;;;;;;8290188;28;20028;-62
2022/01/29 19:47:53;;;;;;;1.08;1.08;;;;;;;;;;8292376;28;20034;-62
2022/01/29 19:51:53;;;;;;;1.30;1.20;;;;;;;;;;8292720;28;20537;-63
2022/01/29 19:55:54;;;;;;;1.37;1.27;;;;;;;;;;8292723;28;20374;-62
2022/01/29 19:59:54;;;;;;;1.90;1.25;;;;;;;;;;8292277;28;20294;-62
2022/01/29 20:03:57;;;;;;;1.70;1.60;;;;;;;;;;8292304;28;20310;-62
2022/01/29 20:07:57;;;;;;;1.27;1.17;;;;;;;;;;8293909;28;20654;-62
2022/01/29 20:11:57;;;;;;;1.50;1.40;;;;;;;;;;8291431;28;20024;-62
2022/01/29 20:15:57;;;;;;;1.00;0.90;;;;;;;;;;8292597;28;20559;-62
2022/01/29 20:19:58;;;;;;;2.10;1.00;;;;;;;;;;8290298;28;20030;-62
2022/01/29 20:23:58;;;;;;;1.30;1.20;;;;;;;;;;8294338;28;20052;-62
2022/01/29 20:27:58;;;;;;;1.00;1.00;;;;;;;;;;8292353;28;20788;-62
2022/01/29 20:31:58;;;;;;;1.13;1.05;;;;;;;;;;8290504;28;20948;-62
2022/01/29 20:35:58;;;;;;;1.10;1.10;;;;;;;;;;8290946;28;20397;-62
2022/01/29 20:39:59;;;;;;;1.15;1.13;;;;;;;;;;8290935;28;20408;-62
2022/01/29 20:44:02;;;;;;;1.75;1.30;;;;;;;;;;8292308;28;20025;-62
2022/01/29 20:48:03;;;;;;;1.03;1.00;;;;;;;;;;8290959;28;20265;-62
2022/01/29 20:52:04;;;;;;;1.20;1.20;;;;;;;;;;8290824;28;20409;-62
2022/01/29 20:56:04;;;;;;;1.42;1.33;;;;;;;;;;8293111;28;20864;-62
2022/01/29 21:00:06;;;;;;;1.42;1.33;;;;;;;;;;8290194;28;20482;-63
2022/01/29 21:04:06;;;;;;;1.40;1.30;;;;;;;;;;8292114;28;20029;-62
2022/01/29 21:08:06;;;;;;;1.70;1.60;;;;;;;;;;8292306;28;20446;-62
2022/01/29 21:12:07;;;;;;;1.70;1.33;;;;;;;;;;8289139;28;20020;-62
2022/01/29 21:16:07;;;;;;;1.60;1.50;;;;;;;;;;8291317;28;20033;-62
2022/01/29 21:20:08;;;;;;;2.10;1.83;;;;;;;;;;8290482;28;20020;-62
2022/01/29 21:24:10;;;;;;;2.00;1.77;;;;;;;;;;8290703;28;20394;-62
2022/01/29 21:28:10;;;;;;;2.08;1.98;;;;;;;;;;8289900;28;20024;-62
2022/01/29 21:32:11;;;;;;;2.60;1.88;;;;;;;;;;8290433;28;20453;-62
2022/01/29 21:36:11;;;;;;;2.42;2.22;;;;;;;;;;8290581;28;20037;-62
2022/01/29 21:40:11;;;;;;;2.80;2.22;;;;;;;;;;8292537;28;20029;-62
2022/01/29 21:44:14;;;;;;;2.03;1.90;;;;;;;;;;8290869;28;20516;-62
2022/01/29 21:48:14;;;;;;;1.80;1.70;;;;;;;;;;8291104;28;20048;-62
2022/01/29 21:52:15;;;;;;;2.38;2.20;;;;;;;;;;8288345;28;20072;-62
2022/01/29 21:56:15;;;;;;;2.33;2.20;;;;;;;;;;8281760;28;20040;-62
2022/01/29 22:00:15;;;;;;;2.95;2.20;;;;;;;;;;8281198;28;20393;-62
2022/01/29 22:04:15;;;;;;;2.72;2.53;;;;;;;;;;8287525;28;20147;-62
2022/01/29 22:08:16;;;;;;;2.80;2.60;;;;;;;;;;8289289;28;20424;-62
2022/01/29 22:12:17;;;;;;;4.10;2.70;;;;;;;;;;8286712;28;20025;-62
2022/01/29 22:16:18;;;;;;;3.30;3.00;;;;;;;;;;8289623;28;20112;-62
2022/01/29 22:20:18;;;;;;;3.70;2.75;;;;;;;;;;8287708;28;20496;-62
2022/01/29 22:24:18;;;;;;;3.30;3.00;;;;;;;;;;8290698;28;20132;-62
2022/01/29 22:28:18;;;;;;;3.78;3.10;;;;;;;;;;8288383;28;20120;-62
2022/01/29 22:32:19;;;;;;;4.53;3.20;;;;;;;;;;8288409;28;20033;-63
2022/01/29 22:36:21;;;;;;;3.95;3.25;;;;;;;;;;8288648;28;20028;-62
2022/01/29 22:40:23;;;;;;;3.75;2.90;;;;;;;;;;8286805;28;20353;-62
2022/01/29 22:44:23;;;;;;;4.15;3.63;;;;;;;;;;8289470;28;20146;-62
2022/01/29 22:48:23;;;;;;;4.20;3.13;;;;;;;;;;8290208;28;20045;-62
2022/01/29 22:52:23;;;;;;;3.42;3.13;;;;;;;;;;8288641;28;20032;-62
2022/01/29 22:56:23;;;;;;;5.43;3.03;;;;;;;;;;8289350;28;20063;-63
2022/01/29 23:00:24;;;;;;;4.38;3.40;;;;;;;;;;8285934;28;20034;-62
2022/01/29 23:04:24;;;;;;;3.28;2.60;;;;;;;;;;8288489;28;20025;-62
2022/01/29 23:08:25;;;;;;;4.85;3.13;;;;;;;;;;8290319;28;20024;-62
2022/01/29 23:12:32;;;;;;;6.78;2.63;;;;;;;;;;8289346;28;20013;-62
2022/01/29 23:16:45;;;;;;;5.15;3.10;;;;;;;;;;8295513;28;20033;-62
2022/01/29 23:24:58;;;;;;;6.18;3.15;;;;;;;;;;8291101;28;20029;-62
2022/01/29 23:29:02;;;;;;;4.68;2.83;;;;;;;;;;8293928;28;20052;-62
2022/01/29 23:33:32;;;;;;;4.38;2.50;;;;;;;;;;8293232;28;20106;-62
2022/01/29 23:37:42;;;;;;;6.40;2.40;;;;;;;;;;8292041;28;20056;-62
2022/01/29 23:50:04;;;;;;;7.30;3.72;;;;;;;;;;8284772;28;20261;-62
2022/01/29 23:54:04;;;;;;;8.77;3.10;;;;;;;;;;8292128;28;20021;-62
2022/01/29 23:58:04;;;;;;;10.20;3.67;;;;;;;;;;8294069;28;20253;-62
